sensor_id;sensor_type;location;lat;lon;timestamp;temperature;humidity
2062;DHT22;11070;51.336;12.340;2024-03-22T00:00:05;7.60;99.90
2062;DHT22;11070;51.336;12.340;2024-03-22T00:02:31;7.60;99.90
2062;DHT22;11070;51.336;12.340;2024-03-22T00:04:57;7.50;99.90
2062;DHT22;11070;51.336;12.340;2024-03-22T00:07:22;7.50;99.90
2062;DHT22;11070;51.336;12.340;2024-03-22T00:09:48;7.50;99.90
2062;DHT22;11070;51.336;12.340;2024-03-22T00:12:14;7.40;99.90
2062;DHT22;11070;51.336;12.340;2024-03-22T00:14:39;7.40;99.90
2062;DHT22;11070;51.336;12.340;2024-03-22T00:17:05;7.40;99.90
2062;DHT22;11070;51.336;12.340;2024-03-22T00:19:30;7.40;99.90
2062;DHT22;11070;51.336;12.340;2024-03-22T00:21:56;7.30;99.90
2062;DHT22;11070;51.336;12.340;2024-03-22T00:24:22;7.30;99.90
2062;DHT22;11070;51.336;12.340;2024-03-22T00:26:47;7.20;99.90
2062;DHT22;11070;51.336;12.340;2024-03-22T00:29:13;7.20;99.90
2062;DHT22;11070;51.336;12.340;2024-03-22T00:31:39;7.20;99.90
2062;DHT22;11070;51.336;12.340;2024-03-22T00:34:04;7.10;99.90
2062;DHT22;11070;51.336;12.340;2024-03-22T00:36:30;7.10;99.90
2062;DHT22;11070;51.336;12.340;2024-03-22T00:38:56;7.10;99.90
2062;DHT22;11070;51.336;12.340;2024-03-22T00:41:22;7.10;99.90
2062;DHT22;11070;51.336;12.340;2024-03-22T00:43:48;7.10;99.90
2062;DHT22;11070;51.336;12.340;2024-03-22T00:46:13;7.00;99.90
2062;DHT22;11070;51.336;12.340;2024-03-22T00:48:39;7.10;99.90
2062;DHT22;11070;51.336;12.340;2024-03-22T00:51:04;7.00;99.90
2062;DHT22;11070;51.336;12.340;2024-03-22T00:53:30;7.00;99.90
2062;DHT22;11070;51.336;12.340;2024-03-22T00:55:56;7.00;99.90
2062;DHT22;11070;51.336;12.340;2024-03-22T00:58:27;7.00;99.90
2062;DHT22;11070;51.336;12.340;2024-03-22T01:00:54;7.00;99.90
2062;DHT22;11070;51.336;12.340;2024-03-22T01:03:20;7.00;99.90
2062;DHT22;11070;51.336;12.340;2024-03-22T01:05:46;7.00;99.90
2062;DHT22;11070;51.336;12.340;2024-03-22T01:08:12;7.00;99.90
2062;DHT22;11070;51.336;12.340;2024-03-22T01:10:37;6.90;99.90
2062;DHT22;11070;51.336;12.340;2024-03-22T01:13:03;6.90;99.90
2062;DHT22;11070;51.336;12.340;2024-03-22T01:15:29;6.90;99.90
2062;DHT22;11070;51.336;12.340;2024-03-22T01:17:55;6.90;99.90
2062;DHT22;11070;51.336;12.340;2024-03-22T01:20:20;6.90;99.90
2062;DHT22;11070;51.336;12.340;2024-03-22T01:22:46;6.90;99.90
2062;DHT22;11070;51.336;12.340;2024-03-22T01:25:12;6.90;99.90
2062;DHT22;11070;51.336;12.340;2024-03-22T01:27:37;6.90;99.90
2062;DHT22;11070;51.336;12.340;2024-03-22T01:30:03;6.90;99.90
2062;DHT22;11070;51.336;12.340;2024-03-22T01:32:29;6.90;99.90
2062;DHT22;11070;51.336;12.340;2024-03-22T01:34:57;6.90;99.90
2062;DHT22;11070;51.336;12.340;2024-03-22T01:37:22;6.80;99.90
2062;DHT22;11070;51.336;12.340;2024-03-22T01:39:48;6.80;99.90
2062;DHT22;11070;51.336;12.340;2024-03-22T01:42:14;6.80;99.90
2062;DHT22;11070;51.336;12.340;2024-03-22T01:44:39;6.80;99.90
2062;DHT22;11070;51.336;12.340;2024-03-22T01:47:05;6.80;99.90
2062;DHT22;11070;51.336;12.340;2024-03-22T01:49:31;6.80;99.90
2062;DHT22;11070;51.336;12.340;2024-03-22T01:51:57;6.80;99.90
2062;DHT22;11070;51.336;12.340;2024-03-22T01:54:22;6.80;99.90
2062;DHT22;11070;51.336;12.340;2024-03-22T01:56:48;6.80;99.90
2062;DHT22;11070;51.336;12.340;2024-03-22T01:59:14;6.80;99.90
2062;DHT22;11070;51.336;12.340;2024-03-22T02:01:40;6.70;99.90
2062;DHT22;11070;51.336;12.340;2024-03-22T02:04:06;6.70;99.90
2062;DHT22;11070;51.336;12.340;2024-03-22T02:06:32;6.70;99.90
2062;DHT22;11070;51.336;12.340;2024-03-22T02:08:58;6.70;99.90
2062;DHT22;11070;51.336;12.340;2024-03-22T02:11:26;6.70;99.90
2062;DHT22;11070;51.336;12.340;2024-03-22T02:13:51;6.70;99.90
2062;DHT22;11070;51.336;12.340;2024-03-22T02:16:17;6.60;99.90
2062;DHT22;11070;51.336;12.340;2024-03-22T02:18:43;6.60;99.90
2062;DHT22;11070;51.336;12.340;2024-03-22T02:21:10;6.70;99.90
2062;DHT22;11070;51.336;12.340;2024-03-22T02:23:37;6.70;99.90
2062;DHT22;11070;51.336;12.340;2024-03-22T02:26:04;6.70;99.90
2062;DHT22;11070;51.336;12.340;2024-03-22T02:28:30;6.70;99.90
2062;DHT22;11070;51.336;12.340;2024-03-22T02:30:57;6.70;99.90
2062;DHT22;11070;51.336;12.340;2024-03-22T02:33:23;6.80;99.90
2062;DHT22;11070;51.336;12.340;2024-03-22T02:35:50;6.80;99.90
2062;DHT22;11070;51.336;12.340;2024-03-22T02:38:17;6.80;99.90
2062;DHT22;11070;51.336;12.340;2024-03-22T02:40:43;6.80;99.90
2062;DHT22;11070;51.336;12.340;2024-03-22T02:43:10;6.80;99.90
2062;DHT22;11070;51.336;12.340;2024-03-22T02:45:35;6.80;99.90
2062;DHT22;11070;51.336;12.340;2024-03-22T02:48:01;6.80;99.90
2062;DHT22;11070;51.336;12.340;2024-03-22T02:50:27;6.80;99.90
2062;DHT22;11070;51.336;12.340;2024-03-22T02:52:53;6.80;99.90
2062;DHT22;11070;51.336;12.340;2024-03-22T02:55:18;6.80;99.90
2062;DHT22;11070;51.336;12.340;2024-03-22T02:57:44;6.80;99.90
2062;DHT22;11070;51.336;12.340;2024-03-22T03:00:10;6.80;99.90
2062;DHT22;11070;51.336;12.340;2024-03-22T03:02:36;6.80;99.90
2062;DHT22;11070;51.336;12.340;2024-03-22T03:05:02;6.90;99.90
2062;DHT22;11070;51.336;12.340;2024-03-22T03:07:28;6.90;99.90
2062;DHT22;11070;51.336;12.340;2024-03-22T03:09:53;6.90;99.90
2062;DHT22;11070;51.336;12.340;2024-03-22T03:12:19;7.00;99.90
2062;DHT22;11070;51.336;12.340;2024-03-22T03:14:45;7.00;99.90
2062;DHT22;11070;51.336;12.340;2024-03-22T03:17:10;7.00;99.90
2062;DHT22;11070;51.336;12.340;2024-03-22T03:19:36;7.10;99.90
2062;DHT22;11070;51.336;12.340;2024-03-22T03:22:02;7.10;99.90
2062;DHT22;11070;51.336;12.340;2024-03-22T03:24:28;7.10;99.90
2062;DHT22;11070;51.336;12.340;2024-03-22T03:26:54;7.10;99.90
2062;DHT22;11070;51.336;12.340;2024-03-22T03:29:20;7.10;99.90
2062;DHT22;11070;51.336;12.340;2024-03-22T03:31:45;7.10;99.90
2062;DHT22;11070;51.336;12.340;2024-03-22T03:34:11;7.10;99.90
2062;DHT22;11070;51.336;12.340;2024-03-22T03:36:37;7.10;99.90
2062;DHT22;11070;51.336;12.340;2024-03-22T03:39:03;7.10;99.90
2062;DHT22;11070;51.336;12.340;2024-03-22T03:41:29;7.10;99.90
2062;DHT22;11070;51.336;12.340;2024-03-22T03:43:55;7.00;99.90
2062;DHT22;11070;51.336;12.340;2024-03-22T03:46:20;7.00;99.90
2062;DHT22;11070;51.336;12.340;2024-03-22T03:48:46;7.00;99.90
2062;DHT22;11070;51.336;12.340;2024-03-22T03:51:12;7.00;99.90
2062;DHT22;11070;51.336;12.340;2024-03-22T03:53:37;7.00;99.90
2062;DHT22;11070;51.336;12.340;2024-03-22T03:56:03;7.10;99.90
2062;DHT22;11070;51.336;12.340;2024-03-22T03:58:29;7.10;99.90
2062;DHT22;11070;51.336;12.340;2024-03-22T04:00:54;7.10;99.90
2062;DHT22;11070;51.336;12.340;2024-03-22T04:03:20;7.10;99.90
2062;DHT22;11070;51.336;12.340;2024-03-22T04:05:46;7.10;99.90
2062;DHT22;11070;51.336;12.340;2024-03-22T04:08:11;7.10;99.90
2062;DHT22;11070;51.336;12.340;2024-03-22T04:10:37;7.10;99.90
2062;DHT22;11070;51.336;12.340;2024-03-22T04:13:03;7.10;99.90
2062;DHT22;11070;51.336;12.340;2024-03-22T04:15:28;7.10;99.90
2062;DHT22;11070;51.336;12.340;2024-03-22T04:17:56;7.10;99.90
2062;DHT22;11070;51.336;12.340;2024-03-22T04:20:22;7.10;99.90
2062;DHT22;11070;51.336;12.340;2024-03-22T04:22:48;7.10;99.90
2062;DHT22;11070;51.336;12.340;2024-03-22T04:25:17;7.10;99.90
2062;DHT22;11070;51.336;12.340;2024-03-22T04:27:43;7.00;99.90
2062;DHT22;11070;51.336;12.340;2024-03-22T04:30:09;7.00;99.90
2062;DHT22;11070;51.336;12.340;2024-03-22T04:32:35;7.00;99.90
2062;DHT22;11070;51.336;12.340;2024-03-22T04:35:02;7.00;99.90
2062;DHT22;11070;51.336;12.340;2024-03-22T04:37:27;7.10;99.90
2062;DHT22;11070;51.336;12.340;2024-03-22T04:39:53;7.10;99.90
2062;DHT22;11070;51.336;12.340;2024-03-22T04:42:18;7.10;99.90
2062;DHT22;11070;51.336;12.340;2024-03-22T04:44:45;7.10;99.90
2062;DHT22;11070;51.336;12.340;2024-03-22T04:47:10;7.10;99.90
2062;DHT22;11070;51.336;12.340;2024-03-22T04:49:36;7.10;99.90
2062;DHT22;11070;51.336;12.340;2024-03-22T04:52:02;7.10;99.90
2062;DHT22;11070;51.336;12.340;2024-03-22T04:54:27;7.20;99.90
2062;DHT22;11070;51.336;12.340;2024-03-22T04:56:53;7.20;99.90
2062;DHT22;11070;51.336;12.340;2024-03-22T04:59:19;7.20;99.90
2062;DHT22;11070;51.336;12.340;2024-03-22T05:01:44;7.20;99.90
2062;DHT22;11070;51.336;12.340;2024-03-22T05:04:10;7.20;99.90
2062;DHT22;11070;51.336;12.340;2024-03-22T05:06:35;7.10;99.90
2062;DHT22;11070;51.336;12.340;2024-03-22T05:09:01;7.10;99.90
2062;DHT22;11070;51.336;12.340;2024-03-22T05:11:29;7.10;99.90
2062;DHT22;11070;51.336;12.340;2024-03-22T05:13:54;7.10;99.90
2062;DHT22;11070;51.336;12.340;2024-03-22T05:16:20;7.10;99.90
2062;DHT22;11070;51.336;12.340;2024-03-22T05:18:46;7.10;99.90
2062;DHT22;11070;51.336;12.340;2024-03-22T05:21:11;7.10;99.90
2062;DHT22;11070;51.336;12.340;2024-03-22T05:23:37;7.10;99.90
2062;DHT22;11070;51.336;12.340;2024-03-22T05:26:02;7.10;99.90
2062;DHT22;11070;51.336;12.340;2024-03-22T05:28:29;7.20;99.90
2062;DHT22;11070;51.336;12.340;2024-03-22T05:30:56;7.20;99.90
2062;DHT22;11070;51.336;12.340;2024-03-22T05:33:21;7.20;99.90
2062;DHT22;11070;51.336;12.340;2024-03-22T05:35:47;7.20;99.90
2062;DHT22;11070;51.336;12.340;2024-03-22T05:38:13;7.20;99.90
2062;DHT22;11070;51.336;12.340;2024-03-22T05:40:38;7.30;99.90
2062;DHT22;11070;51.336;12.340;2024-03-22T05:43:04;7.30;99.90
2062;DHT22;11070;51.336;12.340;2024-03-22T05:45:30;7.30;99.90
2062;DHT22;11070;51.336;12.340;2024-03-22T05:47:56;7.40;99.90
2062;DHT22;11070;51.336;12.340;2024-03-22T05:50:21;7.40;99.90
2062;DHT22;11070;51.336;12.340;2024-03-22T05:52:47;7.50;99.90
2062;DHT22;11070;51.336;12.340;2024-03-22T05:55:13;7.50;99.90
2062;DHT22;11070;51.336;12.340;2024-03-22T05:57:39;7.60;99.90
2062;DHT22;11070;51.336;12.340;2024-03-22T06:00:05;7.60;99.90
2062;DHT22;11070;51.336;12.340;2024-03-22T06:02:32;7.70;99.90
2062;DHT22;11070;51.336;12.340;2024-03-22T06:04:58;7.70;99.90
2062;DHT22;11070;51.336;12.340;2024-03-22T06:07:25;7.70;99.90
2062;DHT22;11070;51.336;12.340;2024-03-22T06:09:52;7.80;99.90
2062;DHT22;11070;51.336;12.340;2024-03-22T06:12:18;7.80;99.90
2062;DHT22;11070;51.336;12.340;2024-03-22T06:14:44;7.80;99.90
2062;DHT22;11070;51.336;12.340;2024-03-22T06:17:10;7.90;99.90
2062;DHT22;11070;51.336;12.340;2024-03-22T06:19:36;8.00;99.90
2062;DHT22;11070;51.336;12.340;2024-03-22T06:22:02;8.10;99.90
2062;DHT22;11070;51.336;12.340;2024-03-22T06:24:28;8.10;99.90
2062;DHT22;11070;51.336;12.340;2024-03-22T06:26:54;8.20;99.90
2062;DHT22;11070;51.336;12.340;2024-03-22T06:29:20;8.30;99.90
2062;DHT22;11070;51.336;12.340;2024-03-22T06:31:48;8.40;99.90
2062;DHT22;11070;51.336;12.340;2024-03-22T06:34:15;8.50;99.90
2062;DHT22;11070;51.336;12.340;2024-03-22T06:36:41;8.60;99.90
2062;DHT22;11070;51.336;12.340;2024-03-22T06:39:07;8.60;99.90
2062;DHT22;11070;51.336;12.340;2024-03-22T06:41:34;8.70;99.90
2062;DHT22;11070;51.336;12.340;2024-03-22T06:44:00;8.80;99.90
2062;DHT22;11070;51.336;12.340;2024-03-22T06:46:25;8.70;99.90
2062;DHT22;11070;51.336;12.340;2024-03-22T06:48:52;8.80;99.90
2062;DHT22;11070;51.336;12.340;2024-03-22T06:51:18;8.90;99.90
2062;DHT22;11070;51.336;12.340;2024-03-22T06:53:43;8.90;99.90
2062;DHT22;11070;51.336;12.340;2024-03-22T06:56:11;8.90;99.90
2062;DHT22;11070;51.336;12.340;2024-03-22T06:58:38;9.00;99.90
2062;DHT22;11070;51.336;12.340;2024-03-22T07:01:04;9.10;99.90
2062;DHT22;11070;51.336;12.340;2024-03-22T07:03:29;9.10;99.90
2062;DHT22;11070;51.336;12.340;2024-03-22T07:05:55;9.20;99.90
2062;DHT22;11070;51.336;12.340;2024-03-22T07:08:21;9.20;99.90
2062;DHT22;11070;51.336;12.340;2024-03-22T07:10:47;9.30;99.90
2062;DHT22;11070;51.336;12.340;2024-03-22T07:13:12;9.20;99.90
2062;DHT22;11070;51.336;12.340;2024-03-22T07:15:38;9.20;99.90
2062;DHT22;11070;51.336;12.340;2024-03-22T07:18:04;9.30;99.90
2062;DHT22;11070;51.336;12.340;2024-03-22T07:20:31;9.40;99.90
2062;DHT22;11070;51.336;12.340;2024-03-22T07:22:56;9.40;99.90
2062;DHT22;11070;51.336;12.340;2024-03-22T07:25:22;9.40;99.90
2062;DHT22;11070;51.336;12.340;2024-03-22T07:27:48;9.40;99.90
2062;DHT22;11070;51.336;12.340;2024-03-22T07:30:14;9.50;99.90
2062;DHT22;11070;51.336;12.340;2024-03-22T07:32:40;9.70;99.90
2062;DHT22;11070;51.336;12.340;2024-03-22T07:35:06;9.70;99.90
2062;DHT22;11070;51.336;12.340;2024-03-22T07:37:33;9.70;99.90
2062;DHT22;11070;51.336;12.340;2024-03-22T07:39:59;9.80;99.90
2062;DHT22;11070;51.336;12.340;2024-03-22T07:42:25;9.80;99.90
2062;DHT22;11070;51.336;12.340;2024-03-22T07:44:53;9.80;99.90
2062;DHT22;11070;51.336;12.340;2024-03-22T07:47:19;9.80;99.90
2062;DHT22;11070;51.336;12.340;2024-03-22T07:49:45;9.80;99.90
2062;DHT22;11070;51.336;12.340;2024-03-22T07:52:10;9.80;99.90
2062;DHT22;11070;51.336;12.340;2024-03-22T07:54:36;9.90;99.90
2062;DHT22;11070;51.336;12.340;2024-03-22T07:57:02;10.00;99.90
2062;DHT22;11070;51.336;12.340;2024-03-22T07:59:29;10.20;99.90
2062;DHT22;11070;51.336;12.340;2024-03-22T08:01:55;10.20;99.90
2062;DHT22;11070;51.336;12.340;2024-03-22T08:04:20;10.30;99.90
2062;DHT22;11070;51.336;12.340;2024-03-22T08:06:46;10.50;99.90
2062;DHT22;11070;51.336;12.340;2024-03-22T08:09:12;10.70;99.90
2062;DHT22;11070;51.336;12.340;2024-03-22T08:11:37;10.80;99.90
2062;DHT22;11070;51.336;12.340;2024-03-22T08:14:03;11.00;99.90
2062;DHT22;11070;51.336;12.340;2024-03-22T08:16:29;11.00;99.90
2062;DHT22;11070;51.336;12.340;2024-03-22T08:18:56;11.00;99.90
2062;DHT22;11070;51.336;12.340;2024-03-22T08:21:22;11.00;99.90
2062;DHT22;11070;51.336;12.340;2024-03-22T08:23:49;11.20;99.90
2062;DHT22;11070;51.336;12.340;2024-03-22T08:26:15;11.40;99.90
2062;DHT22;11070;51.336;12.340;2024-03-22T08:28:40;11.40;99.90
2062;DHT22;11070;51.336;12.340;2024-03-22T08:31:06;11.70;99.90
2062;DHT22;11070;51.336;12.340;2024-03-22T08:33:31;11.90;99.90
2062;DHT22;11070;51.336;12.340;2024-03-22T08:35:57;12.00;99.90
2062;DHT22;11070;51.336;12.340;2024-03-22T08:38:23;12.10;99.90
2062;DHT22;11070;51.336;12.340;2024-03-22T08:40:50;12.00;99.90
2062;DHT22;11070;51.336;12.340;2024-03-22T08:43:16;12.30;99.90
2062;DHT22;11070;51.336;12.340;2024-03-22T08:45:41;12.50;99.90
2062;DHT22;11070;51.336;12.340;2024-03-22T08:48:07;12.30;99.90
2062;DHT22;11070;51.336;12.340;2024-03-22T08:50:34;12.30;99.90
2062;DHT22;11070;51.336;12.340;2024-03-22T08:52:59;12.30;99.90
2062;DHT22;11070;51.336;12.340;2024-03-22T08:55:28;12.50;99.90
2062;DHT22;11070;51.336;12.340;2024-03-22T08:57:54;12.50;99.90
2062;DHT22;11070;51.336;12.340;2024-03-22T09:00:20;12.50;99.90
2062;DHT22;11070;51.336;12.340;2024-03-22T09:02:45;12.60;99.90
2062;DHT22;11070;51.336;12.340;2024-03-22T09:05:12;12.20;99.90
2062;DHT22;11070;51.336;12.340;2024-03-22T09:07:38;12.30;99.90
2062;DHT22;11070;51.336;12.340;2024-03-22T09:10:05;12.40;99.90
2062;DHT22;11070;51.336;12.340;2024-03-22T09:12:31;12.50;99.90
2062;DHT22;11070;51.336;12.340;2024-03-22T09:14:57;12.70;99.90
2062;DHT22;11070;51.336;12.340;2024-03-22T09:17:23;13.00;99.90
2062;DHT22;11070;51.336;12.340;2024-03-22T09:19:48;13.40;99.90
2062;DHT22;11070;51.336;12.340;2024-03-22T09:22:14;13.40;99.90
2062;DHT22;11070;51.336;12.340;2024-03-22T09:24:40;14.00;99.90
2062;DHT22;11070;51.336;12.340;2024-03-22T09:27:06;13.80;99.90
2062;DHT22;11070;51.336;12.340;2024-03-22T09:29:37;13.70;99.90
2062;DHT22;11070;51.336;12.340;2024-03-22T09:32:04;13.20;99.90
2062;DHT22;11070;51.336;12.340;2024-03-22T09:34:30;13.30;99.90
2062;DHT22;11070;51.336;12.340;2024-03-22T09:36:57;13.50;99.90
2062;DHT22;11070;51.336;12.340;2024-03-22T09:39:22;13.60;99.90
2062;DHT22;11070;51.336;12.340;2024-03-22T09:41:50;13.60;99.90
2062;DHT22;11070;51.336;12.340;2024-03-22T09:44:18;13.60;99.90
2062;DHT22;11070;51.336;12.340;2024-03-22T09:46:46;13.60;99.90
2062;DHT22;11070;51.336;12.340;2024-03-22T09:49:12;14.00;99.90
2062;DHT22;11070;51.336;12.340;2024-03-22T09:51:43;14.10;99.90
2062;DHT22;11070;51.336;12.340;2024-03-22T09:54:11;14.20;99.90
2062;DHT22;11070;51.336;12.340;2024-03-22T09:56:40;14.20;99.90
2062;DHT22;11070;51.336;12.340;2024-03-22T09:59:06;13.90;99.90
2062;DHT22;11070;51.336;12.340;2024-03-22T10:01:33;13.70;99.90
2062;DHT22;11070;51.336;12.340;2024-03-22T10:04:00;13.60;99.90
2062;DHT22;11070;51.336;12.340;2024-03-22T10:06:25;13.50;99.90
2062;DHT22;11070;51.336;12.340;2024-03-22T10:21:01;13.60;99.90
2062;DHT22;11070;51.336;12.340;2024-03-22T10:23:28;13.50;99.90
2062;DHT22;11070;51.336;12.340;2024-03-22T10:25:55;13.70;99.90
2062;DHT22;11070;51.336;12.340;2024-03-22T10:28:21;13.70;99.90
2062;DHT22;11070;51.336;12.340;2024-03-22T10:30:50;13.80;99.90
2062;DHT22;11070;51.336;12.340;2024-03-22T10:33:15;13.90;99.90
2062;DHT22;11070;51.336;12.340;2024-03-22T10:35:43;13.90;99.90
2062;DHT22;11070;51.336;12.340;2024-03-22T10:38:10;13.90;99.90
2062;DHT22;11070;51.336;12.340;2024-03-22T10:40:40;13.90;99.90
2062;DHT22;11070;51.336;12.340;2024-03-22T10:43:06;14.10;99.90
2062;DHT22;11070;51.336;12.340;2024-03-22T10:45:32;14.10;99.90
2062;DHT22;11070;51.336;12.340;2024-03-22T10:47:58;14.20;99.90
2062;DHT22;11070;51.336;12.340;2024-03-22T10:50:28;14.20;99.90
2062;DHT22;11070;51.336;12.340;2024-03-22T10:53:00;14.20;99.90
2062;DHT22;11070;51.336;12.340;2024-03-22T10:55:36;14.30;99.90
2062;DHT22;11070;51.336;12.340;2024-03-22T10:58:05;14.30;99.90
2062;DHT22;11070;51.336;12.340;2024-03-22T11:00:32;14.40;99.90
2062;DHT22;11070;51.336;12.340;2024-03-22T11:02:59;14.50;99.90
2062;DHT22;11070;51.336;12.340;2024-03-22T11:05:27;14.60;99.90
2062;DHT22;11070;51.336;12.340;2024-03-22T11:08:00;14.70;99.90
2062;DHT22;11070;51.336;12.340;2024-03-22T11:10:29;14.90;99.90
2062;DHT22;11070;51.336;12.340;2024-03-22T11:12:55;14.90;99.90
2062;DHT22;11070;51.336;12.340;2024-03-22T11:15:22;14.90;99.90
2062;DHT22;11070;51.336;12.340;2024-03-22T11:17:48;15.10;99.90
2062;DHT22;11070;51.336;12.340;2024-03-22T11:20:15;15.20;99.90
2062;DHT22;11070;51.336;12.340;2024-03-22T11:22:41;15.50;99.90
2062;DHT22;11070;51.336;12.340;2024-03-22T11:25:06;15.60;99.90
2062;DHT22;11070;51.336;12.340;2024-03-22T11:27:32;15.70;99.90
2062;DHT22;11070;51.336;12.340;2024-03-22T11:29:58;15.80;99.90
2062;DHT22;11070;51.336;12.340;2024-03-22T11:32:24;15.70;99.90
2062;DHT22;11070;51.336;12.340;2024-03-22T11:34:50;15.50;99.90
2062;DHT22;11070;51.336;12.340;2024-03-22T11:37:15;15.60;99.90
2062;DHT22;11070;51.336;12.340;2024-03-22T11:39:41;15.60;99.90
2062;DHT22;11070;51.336;12.340;2024-03-22T11:42:08;15.60;99.90
2062;DHT22;11070;51.336;12.340;2024-03-22T11:44:36;15.70;99.90
2062;DHT22;11070;51.336;12.340;2024-03-22T11:47:06;15.50;99.90
2062;DHT22;11070;51.336;12.340;2024-03-22T11:49:32;15.50;99.90
2062;DHT22;11070;51.336;12.340;2024-03-22T11:51:57;15.60;99.90
2062;DHT22;11070;51.336;12.340;2024-03-22T11:54:23;15.30;99.90
2062;DHT22;11070;51.336;12.340;2024-03-22T11:56:49;15.40;99.90
2062;DHT22;11070;51.336;12.340;2024-03-22T11:59:19;15.60;99.90
2062;DHT22;11070;51.336;12.340;2024-03-22T12:01:44;15.80;99.90
2062;DHT22;11070;51.336;12.340;2024-03-22T12:04:11;15.90;99.90
2062;DHT22;11070;51.336;12.340;2024-03-22T12:06:44;16.10;99.90
2062;DHT22;11070;51.336;12.340;2024-03-22T12:09:11;16.10;99.90
2062;DHT22;11070;51.336;12.340;2024-03-22T12:11:39;16.10;99.90
2062;DHT22;11070;51.336;12.340;2024-03-22T12:14:05;15.80;99.90
2062;DHT22;11070;51.336;12.340;2024-03-22T12:16:30;15.80;99.90
2062;DHT22;11070;51.336;12.340;2024-03-22T12:18:57;15.80;99.90
2062;DHT22;11070;51.336;12.340;2024-03-22T12:21:23;15.70;99.90
2062;DHT22;11070;51.336;12.340;2024-03-22T12:23:49;15.90;99.90
2062;DHT22;11070;51.336;12.340;2024-03-22T12:26:15;16.30;99.90
2062;DHT22;11070;51.336;12.340;2024-03-22T12:28:40;16.40;99.90
2062;DHT22;11070;51.336;12.340;2024-03-22T12:31:08;16.50;99.90
2062;DHT22;11070;51.336;12.340;2024-03-22T12:33:37;16.60;99.90
2062;DHT22;11070;51.336;12.340;2024-03-22T12:36:04;16.50;99.90
2062;DHT22;11070;51.336;12.340;2024-03-22T12:38:29;16.40;99.90
2062;DHT22;11070;51.336;12.340;2024-03-22T12:40:56;16.40;99.90
2062;DHT22;11070;51.336;12.340;2024-03-22T12:43:21;16.50;99.90
2062;DHT22;11070;51.336;12.340;2024-03-22T12:45:47;16.60;99.90
2062;DHT22;11070;51.336;12.340;2024-03-22T12:48:13;16.30;99.90
2062;DHT22;11070;51.336;12.340;2024-03-22T12:50:38;16.20;99.90
2062;DHT22;11070;51.336;12.340;2024-03-22T12:53:04;16.30;99.90
2062;DHT22;11070;51.336;12.340;2024-03-22T12:55:30;16.20;99.90
2062;DHT22;11070;51.336;12.340;2024-03-22T12:57:59;16.50;99.90
2062;DHT22;11070;51.336;12.340;2024-03-22T13:00:25;16.70;99.90
2062;DHT22;11070;51.336;12.340;2024-03-22T13:02:50;16.80;99.90
2062;DHT22;11070;51.336;12.340;2024-03-22T13:05:16;16.90;99.90
2062;DHT22;11070;51.336;12.340;2024-03-22T13:07:42;16.90;99.90
2062;DHT22;11070;51.336;12.340;2024-03-22T13:10:11;16.80;99.90
2062;DHT22;11070;51.336;12.340;2024-03-22T13:12:37;16.80;99.90
2062;DHT22;11070;51.336;12.340;2024-03-22T13:15:03;16.70;99.90
2062;DHT22;11070;51.336;12.340;2024-03-22T13:17:32;16.70;99.90
2062;DHT22;11070;51.336;12.340;2024-03-22T13:19:58;16.90;99.90
2062;DHT22;11070;51.336;12.340;2024-03-22T13:22:25;17.00;99.90
2062;DHT22;11070;51.336;12.340;2024-03-22T13:24:51;17.40;99.30
2062;DHT22;11070;51.336;12.340;2024-03-22T13:27:17;17.40;98.30
2062;DHT22;11070;51.336;12.340;2024-03-22T13:29:43;17.40;98.00
2062;DHT22;11070;51.336;12.340;2024-03-22T13:32:09;17.50;97.00
2062;DHT22;11070;51.336;12.340;2024-03-22T13:34:38;17.20;97.30
2062;DHT22;11070;51.336;12.340;2024-03-22T13:37:04;17.50;96.80
2062;DHT22;11070;51.336;12.340;2024-03-22T13:39:48;17.40;96.10
2062;DHT22;11070;51.336;12.340;2024-03-22T13:42:15;17.30;96.20
2062;DHT22;11070;51.336;12.340;2024-03-22T13:44:42;17.50;95.80
2062;DHT22;11070;51.336;12.340;2024-03-22T13:47:08;17.70;95.10
2062;DHT22;11070;51.336;12.340;2024-03-22T13:49:36;17.90;93.90
2062;DHT22;11070;51.336;12.340;2024-03-22T13:52:05;17.90;93.50
2062;DHT22;11070;51.336;12.340;2024-03-22T13:54:31;18.10;92.80
2062;DHT22;11070;51.336;12.340;2024-03-22T13:56:57;18.20;92.20
2062;DHT22;11070;51.336;12.340;2024-03-22T13:59:22;17.80;92.70
2062;DHT22;11070;51.336;12.340;2024-03-22T14:01:49;17.40;93.60
2062;DHT22;11070;51.336;12.340;2024-03-22T14:04:15;16.90;94.40
2062;DHT22;11070;51.336;12.340;2024-03-22T14:06:41;16.70;95.20
2062;DHT22;11070;51.336;12.340;2024-03-22T14:09:07;16.70;96.00
2062;DHT22;11070;51.336;12.340;2024-03-22T14:11:36;16.60;95.90
2062;DHT22;11070;51.336;12.340;2024-03-22T14:14:02;16.50;96.60
2062;DHT22;11070;51.336;12.340;2024-03-22T14:16:28;16.50;97.20
2062;DHT22;11070;51.336;12.340;2024-03-22T14:18:53;16.50;97.40
2062;DHT22;11070;51.336;12.340;2024-03-22T14:21:19;16.40;97.80
2062;DHT22;11070;51.336;12.340;2024-03-22T14:23:49;16.30;98.60
2062;DHT22;11070;51.336;12.340;2024-03-22T14:26:18;16.20;99.10
2062;DHT22;11070;51.336;12.340;2024-03-22T14:28:45;16.20;99.50
2062;DHT22;11070;51.336;12.340;2024-03-22T14:31:12;16.10;99.90
2062;DHT22;11070;51.336;12.340;2024-03-22T14:33:39;16.00;99.90
2062;DHT22;11070;51.336;12.340;2024-03-22T14:36:05;16.00;99.90
2062;DHT22;11070;51.336;12.340;2024-03-22T14:38:32;16.00;99.90
2062;DHT22;11070;51.336;12.340;2024-03-22T14:40:58;16.00;99.90
2062;DHT22;11070;51.336;12.340;2024-03-22T14:43:27;15.90;99.90
2062;DHT22;11070;51.336;12.340;2024-03-22T14:45:53;15.70;99.90
2062;DHT22;11070;51.336;12.340;2024-03-22T14:48:22;15.70;99.90
2062;DHT22;11070;51.336;12.340;2024-03-22T14:50:48;15.60;99.90
2062;DHT22;11070;51.336;12.340;2024-03-22T14:53:15;15.60;99.90
2062;DHT22;11070;51.336;12.340;2024-03-22T14:58:27;15.40;99.90
2062;DHT22;11070;51.336;12.340;2024-03-22T15:00:54;15.30;99.90
2062;DHT22;11070;51.336;12.340;2024-03-22T15:03:20;15.30;99.90
2062;DHT22;11070;51.336;12.340;2024-03-22T15:05:46;15.30;99.90
2062;DHT22;11070;51.336;12.340;2024-03-22T15:08:12;15.20;99.90
2062;DHT22;11070;51.336;12.340;2024-03-22T15:10:38;15.20;99.90
2062;DHT22;11070;51.336;12.340;2024-03-22T15:13:05;15.10;99.90
2062;DHT22;11070;51.336;12.340;2024-03-22T15:15:32;15.20;99.90
2062;DHT22;11070;51.336;12.340;2024-03-22T15:17:58;15.10;99.90
2062;DHT22;11070;51.336;12.340;2024-03-22T15:20:25;15.10;99.90
2062;DHT22;11070;51.336;12.340;2024-03-22T15:22:55;15.10;99.90
2062;DHT22;11070;51.336;12.340;2024-03-22T15:25:21;15.00;99.90
2062;DHT22;11070;51.336;12.340;2024-03-22T15:27:47;15.00;99.90
2062;DHT22;11070;51.336;12.340;2024-03-22T15:30:13;15.00;99.90
2062;DHT22;11070;51.336;12.340;2024-03-22T15:32:43;15.00;99.90
2062;DHT22;11070;51.336;12.340;2024-03-22T15:35:09;14.90;99.90
2062;DHT22;11070;51.336;12.340;2024-03-22T15:37:35;14.90;99.90
2062;DHT22;11070;51.336;12.340;2024-03-22T15:40:01;14.80;99.90
2062;DHT22;11070;51.336;12.340;2024-03-22T15:42:27;14.70;99.90
2062;DHT22;11070;51.336;12.340;2024-03-22T15:44:53;14.70;99.90